sensor_id;sensor_type;location;lat;lon;timestamp;P1;durP1;ratioP1;P2;durP2;ratioP2
13969;SDS011;7057;49.984;8.404;2022-09-09T00:00:29;2.05;;;1.35;;
13969;SDS011;7057;49.984;8.404;2022-09-09T00:03:01;2.65;;;1.50;;
13969;SDS011;7057;49.984;8.404;2022-09-09T00:05:38;3.22;;;1.40;;
13969;SDS011;7057;49.984;8.404;2022-09-09T00:08:12;2.28;;;1.45;;
13969;SDS011;7057;49.984;8.404;2022-09-09T00:10:45;1.60;;;1.20;;
13969;SDS011;7057;49.984;8.404;2022-09-09T00:13:22;3.35;;;1.60;;
13969;SDS011;7057;49.984;8.404;2022-09-09T00:15:57;4.05;;;1.80;;
13969;SDS011;7057;49.984;8.404;2022-09-09T00:18:30;3.33;;;1.55;;
13969;SDS011;7057;49.984;8.404;2022-09-09T00:21:07;2.42;;;1.40;;
13969;SDS011;7057;49.984;8.404;2022-09-09T00:23:43;3.05;;;1.40;;
13969;SDS011;7057;49.984;8.404;2022-09-09T00:26:18;2.92;;;1.55;;
13969;SDS011;7057;49.984;8.404;2022-09-09T00:28:52;1.97;;;1.30;;
13969;SDS011;7057;49.984;8.404;2022-09-09T00:31:26;2.35;;;1.70;;
13969;SDS011;7057;49.984;8.404;2022-09-09T00:33:55;2.83;;;1.50;;
13969;SDS011;7057;49.984;8.404;2022-09-09T00:36:26;2.47;;;1.50;;
13969;SDS011;7057;49.984;8.404;2022-09-09T00:38:56;2.40;;;1.35;;
13969;SDS011;7057;49.984;8.404;2022-09-09T00:41:29;2.40;;;1.52;;
13969;SDS011;7057;49.984;8.404;2022-09-09T00:44:12;2.65;;;1.42;;
13969;SDS011;7057;49.984;8.404;2022-09-09T00:46:56;3.87;;;1.67;;
13969;SDS011;7057;49.984;8.404;2022-09-09T00:49:35;3.03;;;1.70;;
13969;SDS011;7057;49.984;8.404;2022-09-09T00:52:13;2.25;;;1.52;;
13969;SDS011;7057;49.984;8.404;2022-09-09T00:54:51;4.70;;;1.67;;
13969;SDS011;7057;49.984;8.404;2022-09-09T00:57:26;2.78;;;1.50;;
13969;SDS011;7057;49.984;8.404;2022-09-09T00:59:57;2.80;;;1.48;;
13969;SDS011;7057;49.984;8.404;2022-09-09T01:02:35;2.63;;;1.65;;
13969;SDS011;7057;49.984;8.404;2022-09-09T01:05:13;1.98;;;1.35;;
13969;SDS011;7057;49.984;8.404;2022-09-09T01:07:47;2.80;;;1.67;;
13969;SDS011;7057;49.984;8.404;2022-09-09T01:10:19;2.80;;;1.60;;
13969;SDS011;7057;49.984;8.404;2022-09-09T01:12:54;2.70;;;1.60;;
13969;SDS011;7057;49.984;8.404;2022-09-09T01:15:26;2.80;;;1.42;;
13969;SDS011;7057;49.984;8.404;2022-09-09T01:17:58;3.97;;;1.60;;
13969;SDS011;7057;49.984;8.404;2022-09-09T01:20:30;3.03;;;1.50;;
13969;SDS011;7057;49.984;8.404;2022-09-09T01:26:18;2.65;;;1.45;;
13969;SDS011;7057;49.984;8.404;2022-09-09T01:28:50;1.60;;;1.50;;
13969;SDS011;7057;49.984;8.404;2022-09-09T01:31:19;2.28;;;1.70;;
13969;SDS011;7057;49.984;8.404;2022-09-09T01:33:49;1.75;;;1.33;;
13969;SDS011;7057;49.984;8.404;2022-09-09T01:36:19;2.30;;;1.60;;
13969;SDS011;7057;49.984;8.404;2022-09-09T01:38:51;3.92;;;1.75;;
13969;SDS011;7057;49.984;8.404;2022-09-09T01:41:20;3.60;;;1.50;;
13969;SDS011;7057;49.984;8.404;2022-09-09T01:43:48;1.87;;;1.50;;
13969;SDS011;7057;49.984;8.404;2022-09-09T01:46:17;1.88;;;1.40;;
13969;SDS011;7057;49.984;8.404;2022-09-09T01:48:48;3.85;;;1.42;;
13969;SDS011;7057;49.984;8.404;2022-09-09T01:51:16;1.53;;;1.43;;
13969;SDS011;7057;49.984;8.404;2022-09-09T01:53:44;2.17;;;1.80;;
13969;SDS011;7057;49.984;8.404;2022-09-09T01:56:15;2.65;;;1.60;;
13969;SDS011;7057;49.984;8.404;2022-09-09T01:58:56;3.30;;;1.70;;
13969;SDS011;7057;49.984;8.404;2022-09-09T02:01:41;4.60;;;1.55;;
13969;SDS011;7057;49.984;8.404;2022-09-09T02:04:18;3.00;;;1.70;;
13969;SDS011;7057;49.984;8.404;2022-09-09T02:06:55;4.90;;;1.80;;
13969;SDS011;7057;49.984;8.404;2022-09-09T02:09:24;2.88;;;1.75;;
13969;SDS011;7057;49.984;8.404;2022-09-09T02:11:54;2.45;;;1.65;;
13969;SDS011;7057;49.984;8.404;2022-09-09T02:14:27;2.45;;;1.50;;
13969;SDS011;7057;49.984;8.404;2022-09-09T02:17:02;2.80;;;1.80;;
13969;SDS011;7057;49.984;8.404;2022-09-09T02:19:34;2.78;;;1.52;;
13969;SDS011;7057;49.984;8.404;2022-09-09T02:22:05;2.35;;;1.63;;
13969;SDS011;7057;49.984;8.404;2022-09-09T02:24:33;2.70;;;1.70;;
13969;SDS011;7057;49.984;8.404;2022-09-09T02:27:05;2.35;;;1.60;;
13969;SDS011;7057;49.984;8.404;2022-09-09T02:29:35;2.50;;;1.65;;
13969;SDS011;7057;49.984;8.404;2022-09-09T02:32:06;2.53;;;1.73;;
13969;SDS011;7057;49.984;8.404;2022-09-09T02:34:37;2.50;;;1.63;;
13969;SDS011;7057;49.984;8.404;2022-09-09T02:37:09;2.72;;;1.50;;
13969;SDS011;7057;49.984;8.404;2022-09-09T02:39:38;2.90;;;1.70;;
13969;SDS011;7057;49.984;8.404;2022-09-09T02:42:07;2.10;;;1.60;;
13969;SDS011;7057;49.984;8.404;2022-09-09T02:44:34;3.20;;;1.58;;
13969;SDS011;7057;49.984;8.404;2022-09-09T02:47:08;3.63;;;1.80;;
13969;SDS011;7057;49.984;8.404;2022-09-09T02:49:54;3.53;;;1.70;;
13969;SDS011;7057;49.984;8.404;2022-09-09T02:52:30;2.60;;;1.70;;
13969;SDS011;7057;49.984;8.404;2022-09-09T02:55:04;2.57;;;1.70;;
13969;SDS011;7057;49.984;8.404;2022-09-09T02:57:39;3.65;;;1.70;;
13969;SDS011;7057;49.984;8.404;2022-09-09T03:00:09;2.20;;;1.70;;
13969;SDS011;7057;49.984;8.404;2022-09-09T03:02:38;3.70;;;1.70;;
13969;SDS011;7057;49.984;8.404;2022-09-09T03:05:05;3.42;;;1.63;;
13969;SDS011;7057;49.984;8.404;2022-09-09T03:07:33;3.47;;;1.73;;
13969;SDS011;7057;49.984;8.404;2022-09-09T03:10:00;2.60;;;1.70;;
13969;SDS011;7057;49.984;8.404;2022-09-09T03:12:27;4.38;;;1.88;;
13969;SDS011;7057;49.984;8.404;2022-09-09T03:14:56;3.78;;;1.70;;
13969;SDS011;7057;49.984;8.404;2022-09-09T03:17:23;3.13;;;1.60;;
13969;SDS011;7057;49.984;8.404;2022-09-09T03:19:53;3.17;;;1.70;;
13969;SDS011;7057;49.984;8.404;2022-09-09T03:22:21;2.70;;;1.60;;
13969;SDS011;7057;49.984;8.404;2022-09-09T03:24:48;4.47;;;1.90;;
13969;SDS011;7057;49.984;8.404;2022-09-09T03:27:16;3.57;;;1.87;;
13969;SDS011;7057;49.984;8.404;2022-09-09T03:29:45;3.13;;;1.83;;
13969;SDS011;7057;49.984;8.404;2022-09-09T03:32:13;5.30;;;1.90;;
13969;SDS011;7057;49.984;8.404;2022-09-09T03:34:43;3.22;;;1.83;;
13969;SDS011;7057;49.984;8.404;2022-09-09T03:37:10;4.10;;;2.17;;
13969;SDS011;7057;49.984;8.404;2022-09-09T03:39:37;2.75;;;1.95;;
13969;SDS011;7057;49.984;8.404;2022-09-09T03:42:05;2.87;;;1.70;;
13969;SDS011;7057;49.984;8.404;2022-09-09T03:44:32;4.20;;;1.80;;
13969;SDS011;7057;49.984;8.404;2022-09-09T03:46:59;2.63;;;2.00;;
13969;SDS011;7057;49.984;8.404;2022-09-09T03:49:28;3.27;;;2.00;;
13969;SDS011;7057;49.984;8.404;2022-09-09T03:51:55;2.45;;;2.05;;
13969;SDS011;7057;49.984;8.404;2022-09-09T03:54:23;5.10;;;2.03;;
13969;SDS011;7057;49.984;8.404;2022-09-09T03:56:51;2.70;;;1.75;;
13969;SDS011;7057;49.984;8.404;2022-09-09T03:59:18;4.57;;;1.80;;
13969;SDS011;7057;49.984;8.404;2022-09-09T04:01:46;3.23;;;1.57;;
13969;SDS011;7057;49.984;8.404;2022-09-09T04:04:14;4.47;;;1.77;;
13969;SDS011;7057;49.984;8.404;2022-09-09T04:06:42;2.83;;;1.70;;
13969;SDS011;7057;49.984;8.404;2022-09-09T04:09:09;2.43;;;1.47;;
13969;SDS011;7057;49.984;8.404;2022-09-09T04:11:37;3.50;;;1.80;;
13969;SDS011;7057;49.984;8.404;2022-09-09T04:14:04;3.88;;;1.80;;
13969;SDS011;7057;49.984;8.404;2022-09-09T04:16:31;2.97;;;1.60;;
13969;SDS011;7057;49.984;8.404;2022-09-09T04:18:58;3.70;;;1.97;;
13969;SDS011;7057;49.984;8.404;2022-09-09T04:21:26;3.23;;;1.50;;
13969;SDS011;7057;49.984;8.404;2022-09-09T04:23:55;3.53;;;1.70;;
13969;SDS011;7057;49.984;8.404;2022-09-09T04:26:22;2.50;;;1.88;;
13969;SDS011;7057;49.984;8.404;2022-09-09T04:28:49;4.40;;;2.10;;
13969;SDS011;7057;49.984;8.404;2022-09-09T04:31:17;3.33;;;2.00;;
13969;SDS011;7057;49.984;8.404;2022-09-09T04:33:46;3.63;;;1.90;;
13969;SDS011;7057;49.984;8.404;2022-09-09T04:36:14;3.67;;;2.20;;
13969;SDS011;7057;49.984;8.404;2022-09-09T04:38:42;1.67;;;1.57;;
13969;SDS011;7057;49.984;8.404;2022-09-09T04:41:11;3.63;;;2.05;;
13969;SDS011;7057;49.984;8.404;2022-09-09T04:43:39;2.67;;;2.10;;
13969;SDS011;7057;49.984;8.404;2022-09-09T04:46:06;2.60;;;1.98;;
13969;SDS011;7057;49.984;8.404;2022-09-09T04:48:33;2.88;;;2.20;;
13969;SDS011;7057;49.984;8.404;2022-09-09T04:51:01;4.00;;;2.20;;
13969;SDS011;7057;49.984;8.404;2022-09-09T04:53:30;3.90;;;2.00;;
13969;SDS011;7057;49.984;8.404;2022-09-09T04:56:02;2.75;;;1.80;;
13969;SDS011;7057;49.984;8.404;2022-09-09T04:58:32;3.53;;;2.35;;
13969;SDS011;7057;49.984;8.404;2022-09-09T05:01:03;2.38;;;1.85;;
13969;SDS011;7057;49.984;8.404;2022-09-09T05:03:31;2.00;;;1.80;;
13969;SDS011;7057;49.984;8.404;2022-09-09T05:06:02;3.77;;;2.00;;
13969;SDS011;7057;49.984;8.404;2022-09-09T05:08:30;2.83;;;2.13;;
13969;SDS011;7057;49.984;8.404;2022-09-09T05:10:57;5.27;;;2.13;;
13969;SDS011;7057;49.984;8.404;2022-09-09T05:13:25;2.90;;;2.03;;
13969;SDS011;7057;49.984;8.404;2022-09-09T05:15:58;4.00;;;2.13;;
13969;SDS011;7057;49.984;8.404;2022-09-09T05:18:25;2.35;;;1.70;;
13969;SDS011;7057;49.984;8.404;2022-09-09T05:20:52;3.83;;;1.98;;
13969;SDS011;7057;49.984;8.404;2022-09-09T05:23:24;3.08;;;1.90;;
13969;SDS011;7057;49.984;8.404;2022-09-09T05:25:55;4.32;;;2.00;;
13969;SDS011;7057;49.984;8.404;2022-09-09T05:28:23;3.28;;;2.00;;
13969;SDS011;7057;49.984;8.404;2022-09-09T05:30:59;2.75;;;2.03;;
13969;SDS011;7057;49.984;8.404;2022-09-09T05:33:29;4.05;;;1.90;;
13969;SDS011;7057;49.984;8.404;2022-09-09T05:35:57;4.20;;;1.90;;
13969;SDS011;7057;49.984;8.404;2022-09-09T05:38:25;3.17;;;1.90;;
13969;SDS011;7057;49.984;8.404;2022-09-09T05:40:52;2.60;;;1.80;;
13969;SDS011;7057;49.984;8.404;2022-09-09T05:43:21;3.78;;;1.50;;
13969;SDS011;7057;49.984;8.404;2022-09-09T05:45:59;4.00;;;1.77;;
13969;SDS011;7057;49.984;8.404;2022-09-09T05:48:28;3.72;;;1.83;;
13969;SDS011;7057;49.984;8.404;2022-09-09T12:40:58;2.50;;;1.27;;
13969;SDS011;7057;49.984;8.404;2022-09-09T12:43:26;3.42;;;1.15;;
13969;SDS011;7057;49.984;8.404;2022-09-09T12:45:55;3.20;;;1.55;;
13969;SDS011;7057;49.984;8.404;2022-09-09T12:48:30;2.47;;;1.33;;
13969;SDS011;7057;49.984;8.404;2022-09-09T12:51:00;3.80;;;1.48;;
13969;SDS011;7057;49.984;8.404;2022-09-09T12:53:29;2.10;;;1.30;;
13969;SDS011;7057;49.984;8.404;2022-09-09T12:56:00;1.35;;;0.70;;
13969;SDS011;7057;49.984;8.404;2022-09-09T12:58:32;1.27;;;0.80;;
13969;SDS011;7057;49.984;8.404;2022-09-09T13:01:00;1.02;;;0.70;;
13969;SDS011;7057;49.984;8.404;2022-09-09T13:03:31;1.08;;;0.77;;
13969;SDS011;7057;49.984;8.404;2022-09-09T13:06:10;1.02;;;0.82;;
13969;SDS011;7057;49.984;8.404;2022-09-09T13:08:38;1.20;;;0.70;;
13969;SDS011;7057;49.984;8.404;2022-09-09T13:11:07;1.23;;;0.80;;
13969;SDS011;7057;49.984;8.404;2022-09-09T13:13:40;2.43;;;0.93;;
13969;SDS011;7057;49.984;8.404;2022-09-09T13:16:18;0.73;;;0.70;;
13969;SDS011;7057;49.984;8.404;2022-09-09T13:18:48;1.05;;;0.73;;
13969;SDS011;7057;49.984;8.404;2022-09-09T13:21:16;1.17;;;0.70;;
13969;SDS011;7057;49.984;8.404;2022-09-09T13:23:48;0.80;;;0.80;;
13969;SDS011;7057;49.984;8.404;2022-09-09T13:26:21;0.73;;;0.60;;
13969;SDS011;7057;49.984;8.404;2022-09-09T13:28:50;0.98;;;0.73;;
13969;SDS011;7057;49.984;8.404;2022-09-09T13:31:19;1.30;;;0.60;;
13969;SDS011;7057;49.984;8.404;2022-09-09T13:33:49;0.70;;;0.60;;
13969;SDS011;7057;49.984;8.404;2022-09-09T13:36:26;0.88;;;0.68;;
13969;SDS011;7057;49.984;8.404;2022-09-09T13:38:56;1.63;;;0.70;;
13969;SDS011;7057;49.984;8.404;2022-09-09T13:41:27;1.13;;;0.60;;
13969;SDS011;7057;49.984;8.404;2022-09-09T13:43:57;1.10;;;0.85;;
13969;SDS011;7057;49.984;8.404;2022-09-09T13:46:26;2.15;;;0.80;;
13969;SDS011;7057;49.984;8.404;2022-09-09T13:49:00;0.70;;;0.60;;
13969;SDS011;7057;49.984;8.404;2022-09-09T13:51:37;1.58;;;0.88;;
13969;SDS011;7057;49.984;8.404;2022-09-09T13:54:05;1.60;;;0.70;;
13969;SDS011;7057;49.984;8.404;2022-09-09T13:56:36;1.15;;;0.80;;
13969;SDS011;7057;49.984;8.404;2022-09-09T13:59:04;2.10;;;0.80;;
13969;SDS011;7057;49.984;8.404;2022-09-09T14:01:33;0.82;;;0.73;;
13969;SDS011;7057;49.984;8.404;2022-09-09T14:04:02;1.58;;;0.82;;
13969;SDS011;7057;49.984;8.404;2022-09-09T14:06:30;1.27;;;0.90;;
13969;SDS011;7057;49.984;8.404;2022-09-09T14:08:58;1.33;;;0.80;;
13969;SDS011;7057;49.984;8.404;2022-09-09T14:11:25;1.42;;;0.90;;
13969;SDS011;7057;49.984;8.404;2022-09-09T14:13:52;1.58;;;0.82;;
13969;SDS011;7057;49.984;8.404;2022-09-09T14:16:19;1.90;;;0.80;;
13969;SDS011;7057;49.984;8.404;2022-09-09T14:18:47;2.60;;;0.80;;
13969;SDS011;7057;49.984;8.404;2022-09-09T14:21:15;1.90;;;1.00;;
13969;SDS011;7057;49.984;8.404;2022-09-09T14:23:43;1.55;;;0.93;;
13969;SDS011;7057;49.984;8.404;2022-09-09T14:26:10;1.58;;;0.80;;
13969;SDS011;7057;49.984;8.404;2022-09-09T14:28:38;1.03;;;0.80;;
13969;SDS011;7057;49.984;8.404;2022-09-09T14:31:05;2.85;;;1.23;;
13969;SDS011;7057;49.984;8.404;2022-09-09T14:33:33;4.35;;;1.20;;
13969;SDS011;7057;49.984;8.404;2022-09-09T14:36:03;0.88;;;0.77;;
13969;SDS011;7057;49.984;8.404;2022-09-09T14:38:32;1.60;;;1.20;;
13969;SDS011;7057;49.984;8.404;2022-09-09T14:41:04;1.83;;;0.82;;
13969;SDS011;7057;49.984;8.404;2022-09-09T14:43:31;1.60;;;0.90;;
13969;SDS011;7057;49.984;8.404;2022-09-09T14:46:04;1.00;;;0.90;;
13969;SDS011;7057;49.984;8.404;2022-09-09T14:48:32;2.08;;;0.95;;
13969;SDS011;7057;49.984;8.404;2022-09-09T14:51:04;1.50;;;0.80;;
13969;SDS011;7057;49.984;8.404;2022-09-09T14:53:33;1.30;;;0.70;;
13969;SDS011;7057;49.984;8.404;2022-09-09T14:56:04;1.75;;;0.88;;
13969;SDS011;7057;49.984;8.404;2022-09-09T14:58:34;3.00;;;1.02;;
13969;SDS011;7057;49.984;8.404;2022-09-09T15:01:02;2.35;;;1.20;;
13969;SDS011;7057;49.984;8.404;2022-09-09T15:03:30;1.60;;;0.90;;
13969;SDS011;7057;49.984;8.404;2022-09-09T15:05:57;3.08;;;1.10;;
13969;SDS011;7057;49.984;8.404;2022-09-09T15:08:25;2.40;;;1.10;;
13969;SDS011;7057;49.984;8.404;2022-09-09T15:10:59;5.28;;;1.08;;
13969;SDS011;7057;49.984;8.404;2022-09-09T15:13:27;3.17;;;1.30;;
13969;SDS011;7057;49.984;8.404;2022-09-09T15:15:54;1.58;;;1.08;;
13969;SDS011;7057;49.984;8.404;2022-09-09T15:18:23;2.85;;;1.15;;
13969;SDS011;7057;49.984;8.404;2022-09-09T15:20:50;3.05;;;1.10;;
13969;SDS011;7057;49.984;8.404;2022-09-09T15:23:18;3.20;;;1.20;;
13969;SDS011;7057;49.984;8.404;2022-09-09T15:25:51;2.00;;;1.10;;
13969;SDS011;7057;49.984;8.404;2022-09-09T15:28:21;1.98;;;1.20;;
13969;SDS011;7057;49.984;8.404;2022-09-09T15:30:48;2.63;;;1.02;;
13969;SDS011;7057;49.984;8.404;2022-09-09T15:33:17;2.30;;;1.13;;
13969;SDS011;7057;49.984;8.404;2022-09-09T15:35:45;1.63;;;0.90;;
13969;SDS011;7057;49.984;8.404;2022-09-09T15:38:12;1.67;;;1.02;;
13969;SDS011;7057;49.984;8.404;2022-09-09T15:40:40;2.67;;;1.27;;
13969;SDS011;7057;49.984;8.404;2022-09-09T15:43:07;1.17;;;0.90;;
13969;SDS011;7057;49.984;8.404;2022-09-09T15:45:37;1.50;;;0.90;;
13969;SDS011;7057;49.984;8.404;2022-09-09T15:48:04;2.35;;;1.20;;
13969;SDS011;7057;49.984;8.404;2022-09-09T15:50:31;2.90;;;1.20;;
13969;SDS011;7057;49.984;8.404;2022-09-09T15:52:58;1.80;;;1.20;;
13969;SDS011;7057;49.984;8.404;2022-09-09T15:55:26;1.13;;;0.93;;
13969;SDS011;7057;49.984;8.404;2022-09-09T15:57:53;1.90;;;0.80;;
13969;SDS011;7057;49.984;8.404;2022-09-09T16:00:21;1.67;;;0.80;;
13969;SDS011;7057;49.984;8.404;2022-09-09T16:02:51;1.42;;;0.77;;
13969;SDS011;7057;49.984;8.404;2022-09-09T16:05:19;1.85;;;1.10;;
13969;SDS011;7057;49.984;8.404;2022-09-09T16:07:46;3.47;;;0.90;;
13969;SDS011;7057;49.984;8.404;2022-09-09T16:10:14;0.85;;;0.57;;
13969;SDS011;7057;49.984;8.404;2022-09-09T16:12:41;1.40;;;0.68;;
13969;SDS011;7057;49.984;8.404;2022-09-09T16:15:08;2.17;;;0.98;;
13969;SDS011;7057;49.984;8.404;2022-09-09T16:17:35;1.00;;;0.90;;
13969;SDS011;7057;49.984;8.404;2022-09-09T16:20:05;1.30;;;0.90;;
13969;SDS011;7057;49.984;8.404;2022-09-09T16:22:34;0.75;;;0.75;;
13969;SDS011;7057;49.984;8.404;2022-09-09T16:25:02;1.20;;;0.80;;
13969;SDS011;7057;49.984;8.404;2022-09-09T16:27:29;1.77;;;0.95;;
13969;SDS011;7057;49.984;8.404;2022-09-09T16:29:57;1.50;;;0.70;;
13969;SDS011;7057;49.984;8.404;2022-09-09T16:32:24;1.45;;;0.85;;
13969;SDS011;7057;49.984;8.404;2022-09-09T16:34:51;2.25;;;0.80;;
13969;SDS011;7057;49.984;8.404;2022-09-09T16:37:20;1.55;;;1.10;;
13969;SDS011;7057;49.984;8.404;2022-09-09T16:39:47;2.03;;;1.40;;
13969;SDS011;7057;49.984;8.404;2022-09-09T16:42:15;2.13;;;1.67;;
13969;SDS011;7057;49.984;8.404;2022-09-09T16:44:42;3.17;;;1.20;;
13969;SDS011;7057;49.984;8.404;2022-09-09T16:47:10;3.30;;;1.37;;
13969;SDS011;7057;49.984;8.404;2022-09-09T16:49:37;2.05;;;1.50;;
13969;SDS011;7057;49.984;8.404;2022-09-09T16:52:04;1.95;;;1.30;;
13969;SDS011;7057;49.984;8.404;2022-09-09T16:54:32;2.30;;;1.13;;
13969;SDS011;7057;49.984;8.404;2022-09-09T16:56:59;2.03;;;1.27;;
13969;SDS011;7057;49.984;8.404;2022-09-09T16:59:27;2.90;;;1.10;;
13969;SDS011;7057;49.984;8.404;2022-09-09T17:01:54;2.38;;;1.00;;
13969;SDS011;7057;49.984;8.404;2022-09-09T17:04:22;2.63;;;1.20;;
13969;SDS011;7057;49.984;8.404;2022-09-09T17:06:54;2.83;;;1.60;;
13969;SDS011;7057;49.984;8.404;2022-09-09T17:09:22;3.23;;;1.80;;
13969;SDS011;7057;49.984;8.404;2022-09-09T17:11:55;2.00;;;1.50;;
13969;SDS011;7057;49.984;8.404;2022-09-09T17:14:22;2.90;;;1.30;;
13969;SDS011;7057;49.984;8.404;2022-09-09T17:16:50;2.30;;;1.43;;
13969;SDS011;7057;49.984;8.404;2022-09-09T17:19:17;3.03;;;1.60;;
13969;SDS011;7057;49.984;8.404;2022-09-09T17:21:44;2.38;;;1.80;;
13969;SDS011;7057;49.984;8.404;2022-09-09T17:24:13;3.30;;;1.45;;
13969;SDS011;7057;49.984;8.404;2022-09-09T17:26:41;2.65;;;1.33;;
13969;SDS011;7057;49.984;8.404;2022-09-09T17:29:09;1.70;;;1.08;;
13969;SDS011;7057;49.984;8.404;2022-09-09T17:31:37;1.52;;;1.00;;
13969;SDS011;7057;49.984;8.404;2022-09-09T17:34:07;2.63;;;1.30;;
13969;SDS011;7057;49.984;8.404;2022-09-09T17:36:35;3.90;;;1.90;;
13969;SDS011;7057;49.984;8.404;2022-09-09T17:39:04;4.43;;;2.40;;
13969;SDS011;7057;49.984;8.404;2022-09-09T17:41:32;4.55;;;3.38;;
13969;SDS011;7057;49.984;8.404;2022-09-09T17:44:01;3.00;;;1.85;;
13969;SDS011;7057;49.984;8.404;2022-09-09T17:46:30;5.07;;;1.87;;
13969;SDS011;7057;49.984;8.404;2022-09-09T17:49:00;4.50;;;1.60;;
13969;SDS011;7057;49.984;8.404;2022-09-09T17:51:29;5.37;;;3.40;;
13969;SDS011;7057;49.984;8.404;2022-09-09T17:53:58;4.82;;;3.13;;
13969;SDS011;7057;49.984;8.404;2022-09-09T17:56:27;4.38;;;2.20;;
13969;SDS011;7057;49.984;8.404;2022-09-09T17:58:57;3.88;;;1.80;;
13969;SDS011;7057;49.984;8.404;2022-09-09T18:01:25;3.33;;;1.48;;
13969;SDS011;7057;49.984;8.404;2022-09-09T18:03:55;4.28;;;1.77;;
13969;SDS011;7057;49.984;8.404;2022-09-09T18:06:24;3.45;;;1.80;;
13969;SDS011;7057;49.984;8.404;2022-09-09T18:08:53;4.13;;;2.03;;
13969;SDS011;7057;49.984;8.404;2022-09-09T18:11:23;2.63;;;1.70;;
13969;SDS011;7057;49.984;8.404;2022-09-09T18:13:53;4.63;;;3.00;;
13969;SDS011;7057;49.984;8.404;2022-09-09T18:16:23;7.80;;;4.32;;
13969;SDS011;7057;49.984;8.404;2022-09-09T18:18:51;7.55;;;5.53;;
13969;SDS011;7057;49.984;8.404;2022-09-09T18:21:20;8.52;;;4.40;;
13969;SDS011;7057;49.984;8.404;2022-09-09T18:23:47;6.40;;;3.42;;
13969;SDS011;7057;49.984;8.404;2022-09-09T18:26:17;3.57;;;2.03;;
13969;SDS011;7057;49.984;8.404;2022-09-09T18:28:47;6.33;;;4.17;;
13969;SDS011;7057;49.984;8.404;2022-09-09T18:31:16;7.45;;;4.22;;
13969;SDS011;7057;49.984;8.404;2022-09-09T18:33:45;5.43;;;3.10;;
13969;SDS011;7057;49.984;8.404;2022-09-09T18:36:16;2.38;;;1.55;;
13969;SDS011;7057;49.984;8.404;2022-09-09T18:38:45;1.63;;;0.90;;
13969;SDS011;7057;49.984;8.404;2022-09-09T18:41:13;2.67;;;1.15;;
13969;SDS011;7057;49.984;8.404;2022-09-09T18:43:41;1.73;;;0.85;;
13969;SDS011;7057;49.984;8.404;2022-09-09T18:46:09;1.10;;;1.00;;
13969;SDS011;7057;49.984;8.404;2022-09-09T18:48:37;2.15;;;1.00;;
13969;SDS011;7057;49.984;8.404;2022-09-09T18:51:05;1.80;;;1.05;;
13969;SDS011;7057;49.984;8.404;2022-09-09T18:53:33;0.80;;;0.80;;
13969;SDS011;7057;49.984;8.404;2022-09-09T18:56:03;1.53;;;1.00;;
13969;SDS011;7057;49.984;8.404;2022-09-09T18:58:33;2.10;;;0.98;;
13969;SDS011;7057;49.984;8.404;2022-09-09T19:01:01;1.58;;;1.10;;
13969;SDS011;7057;49.984;8.404;2022-09-09T19:03:30;1.95;;;1.15;;
13969;SDS011;7057;49.984;8.404;2022-09-09T19:06:00;1.58;;;0.98;;
13969;SDS011;7057;49.984;8.404;2022-09-09T19:08:29;1.30;;;1.10;;
13969;SDS011;7057;49.984;8.404;2022-09-09T19:10:56;2.47;;;1.20;;
13969;SDS011;7057;49.984;8.404;2022-09-09T19:13:29;2.72;;;1.15;;
13969;SDS011;7057;49.984;8.404;2022-09-09T19:16:01;2.65;;;1.30;;
13969;SDS011;7057;49.984;8.404;2022-09-09T19:18:30;2.05;;;0.82;;
13969;SDS011;7057;49.984;8.404;2022-09-09T19:21:07;1.92;;;1.00;;
13969;SDS011;7057;49.984;8.404;2022-09-09T19:23:38;2.17;;;0.95;;
13969;SDS011;7057;49.984;8.404;2022-09-09T19:26:07;2.30;;;1.10;;
13969;SDS011;7057;49.984;8.404;2022-09-09T19:28:36;1.87;;;1.03;;
13969;SDS011;7057;49.984;8.404;2022-09-09T19:31:04;1.63;;;0.88;;
13969;SDS011;7057;49.984;8.404;2022-09-09T19:33:33;1.05;;;0.88;;
13969;SDS011;7057;49.984;8.404;2022-09-09T19:36:03;2.10;;;1.10;;
13969;SDS011;7057;49.984;8.404;2022-09-09T19:38:32;2.17;;;1.00;;
13969;SDS011;7057;49.984;8.404;2022-09-09T19:41:01;2.40;;;1.33;;
13969;SDS011;7057;49.984;8.404;2022-09-09T19:43:31;3.00;;;0.93;;
13969;SDS011;7057;49.984;8.404;2022-09-09T19:46:00;1.08;;;0.80;;
13969;SDS011;7057;49.984;8.404;2022-09-09T19:48:29;2.17;;;1.10;;
13969;SDS011;7057;49.984;8.404;2022-09-09T19:50:59;1.75;;;1.10;;
13969;SDS011;7057;49.984;8.404;2022-09-09T19:53:28;2.10;;;1.17;;
13969;SDS011;7057;49.984;8.404;2022-09-09T19:55:56;2.90;;;1.13;;
13969;SDS011;7057;49.984;8.404;2022-09-09T19:58:23;2.50;;;1.20;;
13969;SDS011;7057;49.984;8.404;2022-09-09T20:00:51;1.35;;;0.90;;
13969;SDS011;7057;49.984;8.404;2022-09-09T20:03:19;2.40;;;1.20;;
13969;SDS011;7057;49.984;8.404;2022-09-09T20:05:47;1.85;;;1.20;;
13969;SDS011;7057;49.984;8.404;2022-09-09T20:08:14;0.98;;;0.90;;
13969;SDS011;7057;49.984;8.404;2022-09-09T20:10:48;2.00;;;1.10;;
13969;SDS011;7057;49.984;8.404;2022-09-09T20:13:17;1.33;;;0.90;;
13969;SDS011;7057;49.984;8.404;2022-09-09T20:15:45;1.73;;;0.98;;
13969;SDS011;7057;49.984;8.404;2022-09-09T20:18:14;1.42;;;0.82;;
13969;SDS011;7057;49.984;8.404;2022-09-09T20:20:41;2.20;;;0.98;;
13969;SDS011;7057;49.984;8.404;2022-09-09T20:23:09;2.13;;;0.88;;
13969;SDS011;7057;49.984;8.404;2022-09-09T20:25:36;1.58;;;0.90;;
13969;SDS011;7057;49.984;8.404;2022-09-09T20:28:03;1.52;;;0.85;;
13969;SDS011;7057;49.984;8.404;2022-09-09T20:30:31;1.90;;;1.05;;
13969;SDS011;7057;49.984;8.404;2022-09-09T20:33:02;1.63;;;0.97;;
13969;SDS011;7057;49.984;8.404;2022-09-09T20:35:31;1.58;;;0.90;;
13969;SDS011;7057;49.984;8.404;2022-09-09T20:38:01;3.40;;;1.10;;
13969;SDS011;7057;49.984;8.404;2022-09-09T20:40:28;1.08;;;0.90;;
13969;SDS011;7057;49.984;8.404;2022-09-09T20:42:56;3.00;;;1.05;;
13969;SDS011;7057;49.984;8.404;2022-09-09T20:45:23;0.68;;;0.68;;
13969;SDS011;7057;49.984;8.404;2022-09-09T20:47:51;1.63;;;1.20;;
13969;SDS011;7057;49.984;8.404;2022-09-09T20:50:18;1.05;;;0.75;;
13969;SDS011;7057;49.984;8.404;2022-09-09T20:52:47;2.05;;;1.02;;
13969;SDS011;7057;49.984;8.404;2022-09-09T20:55:16;1.33;;;1.10;;
13969;SDS011;7057;49.984;8.404;2022-09-09T20:57:44;1.20;;;1.00;;
13969;SDS011;7057;49.984;8.404;2022-09-09T21:00:12;1.50;;;0.75;;
13969;SDS011;7057;49.984;8.404;2022-09-09T21:02:40;2.13;;;0.90;;
13969;SDS011;7057;49.984;8.404;2022-09-09T21:05:07;1.83;;;1.20;;
13969;SDS011;7057;49.984;8.404;2022-09-09T21:07:36;1.02;;;0.90;;
13969;SDS011;7057;49.984;8.404;2022-09-09T21:10:05;1.80;;;1.20;;
13969;SDS011;7057;49.984;8.404;2022-09-09T21:12:32;2.17;;;1.00;;
13969;SDS011;7057;49.984;8.404;2022-09-09T21:14:59;1.10;;;1.00;;
13969;SDS011;7057;49.984;8.404;2022-09-09T21:17:27;1.58;;;1.35;;
13969;SDS011;7057;49.984;8.404;2022-09-09T21:19:54;1.80;;;1.30;;
13969;SDS011;7057;49.984;8.404;2022-09-09T21:22:21;2.03;;;1.20;;
13969;SDS011;7057;49.984;8.404;2022-09-09T21:24:48;3.00;;;1.30;;
13969;SDS011;7057;49.984;8.404;2022-09-09T21:27:17;3.08;;;1.23;;
13969;SDS011;7057;49.984;8.404;2022-09-09T21:29:44;2.83;;;1.25;;
13969;SDS011;7057;49.984;8.404;2022-09-09T21:32:12;2.60;;;1.13;;
13969;SDS011;7057;49.984;8.404;2022-09-09T21:34:39;2.20;;;1.27;;
13969;SDS011;7057;49.984;8.404;2022-09-09T21:37:07;1.95;;;1.33;;
13969;SDS011;7057;49.984;8.404;2022-09-09T21:39:34;1.80;;;1.45;;
13969;SDS011;7057;49.984;8.404;2022-09-09T21:42:01;1.98;;;1.30;;
13969;SDS011;7057;49.984;8.404;2022-09-09T21:44:30;2.28;;;1.30;;
13969;SDS011;7057;49.984;8.404;2022-09-09T21:46:57;2.38;;;1.20;;
13969;SDS011;7057;49.984;8.404;2022-09-09T21:49:24;1.77;;;1.38;;
13969;SDS011;7057;49.984;8.404;2022-09-09T21:51:52;1.60;;;1.42;;
13969;SDS011;7057;49.984;8.404;2022-09-09T21:54:19;2.67;;;1.60;;
13969;SDS011;7057;49.984;8.404;2022-09-09T21:56:47;1.42;;;1.30;;
13969;SDS011;7057;49.984;8.404;2022-09-09T21:59:16;1.77;;;1.60;;
13969;SDS011;7057;49.984;8.404;2022-09-09T22:01:45;2.58;;;1.70;;
13969;SDS011;7057;49.984;8.404;2022-09-09T22:04:12;3.78;;;1.70;;
13969;SDS011;7057;49.984;8.404;2022-09-09T22:06:40;1.95;;;1.63;;